createdAt,value
2019-04-21T00:00:56.403Z,42.44
2019-04-21T00:03:27.092Z,43.21
2019-04-21T00:06:08.827Z,43.24
2019-04-21T00:08:39.236Z,43.48
2019-04-21T00:11:09.314Z,43.29
2019-04-21T00:13:32.926Z,45.03
2019-04-21T00:15:55.888Z,45.25
2019-04-21T00:18:53.763Z,44.08
2019-04-21T00:21:26.646Z,44.08
2019-04-21T00:24:20.348Z,44.74
2019-04-21T00:26:59.031Z,44.65
2019-04-21T00:29:36.603Z,44.36
2019-04-21T00:31:55.564Z,43.96
2019-04-21T00:34:17.696Z,44.33
2019-04-21T00:36:56.023Z,44.41
2019-04-21T00:39:47.100Z,44.14
2019-04-21T00:42:05.514Z,44.25
2019-04-21T00:44:24.469Z,44.47
2019-04-21T00:47:00.736Z,44.89
2019-04-21T00:49:31.984Z,44.59
2019-04-21T00:52:24.784Z,44.31
2019-04-21T00:54:52.059Z,45.43
2019-04-21T00:57:17.518Z,44.93
2019-04-21T00:59:48.015Z,44.92
2019-04-21T01:02:12.414Z,44.85
2019-04-21T01:04:42.815Z,45.40
2019-04-21T01:07:13.226Z,45.70
2019-04-21T01:09:35.561Z,44.55
2019-04-21T01:12:11.026Z,45.44
2019-04-21T01:14:40.951Z,45.54
2019-04-21T01:17:13.007Z,45.55
2019-04-21T01:19:36.998Z,46.26
2019-04-21T01:21:47.698Z,46.01
2019-04-21T01:24:21.721Z,46.84
2019-04-21T01:26:59.674Z,46.04
2019-04-21T01:29:39.009Z,46.64
2019-04-21T01:32:14.611Z,46.97
2019-04-21T01:34:33.115Z,46.30
2019-04-21T01:36:59.886Z,46.82
2019-04-21T01:39:39.344Z,47.66
2019-04-21T01:42:03.823Z,49.11
2019-04-21T01:44:37.444Z,47.92
2019-04-21T01:46:51.861Z,47.99
2019-04-21T01:49:19.200Z,46.88
2019-04-21T01:52:08.809Z,47.10
2019-04-21T01:54:53.829Z,46.38
2019-04-21T01:57:17.768Z,46.55
2019-04-21T01:59:43.902Z,46.85
2019-04-21T02:02:17.193Z,46.66
2019-04-21T02:05:01.147Z,47.43
2019-04-21T02:07:14.919Z,49.72
2019-04-21T02:09:55.622Z,48.28
2019-04-21T02:12:20.023Z,49.22
2019-04-21T02:14:56.288Z,49.13
2019-04-21T02:17:20.399Z,50.20
2019-04-21T02:19:35.979Z,48.65
2019-04-21T02:22:10.809Z,48.99
2019-04-21T02:24:49.372Z,48.41
2019-04-21T02:27:14.848Z,48.61
2019-04-21T02:29:48.758Z,50.23
2019-04-21T02:32:24.731Z,50.38
2019-04-21T02:39:56.714Z,51.00
2019-04-21T02:44:51.463Z,49.17
2019-04-21T02:49:53.593Z,48.91
2019-04-21T02:52:26.544Z,47.60
2019-04-21T03:00:06.511Z,49.09
2019-04-21T03:06:00.300Z,49.28
2019-04-21T03:08:32.172Z,49.35
2019-04-21T03:10:54.212Z,50.47
2019-04-21T03:18:28.024Z,51.59
2019-04-21T03:20:51.128Z,51.25
2019-04-21T03:23:32.017Z,51.46
2019-04-21T03:26:12.072Z,51.12
2019-04-21T03:28:22.192Z,52.03
2019-04-21T03:33:58.820Z,51.95
2019-04-21T03:36:13.041Z,52.12
2019-04-21T03:38:35.442Z,52.07
2019-04-21T03:40:39.954Z,52.12
2019-04-21T03:43:23.197Z,52.13
2019-04-21T03:48:24.019Z,53.31
2019-04-21T03:50:44.781Z,54.45
2019-04-21T04:11:29.481Z,52.67
2019-04-21T04:14:07.619Z,54.17
2019-04-21T04:16:22.195Z,54.90
2019-04-21T04:21:20.857Z,54.59
2019-04-21T04:26:14.182Z,53.60
2019-04-21T04:28:58.129Z,54.96
2019-04-21T04:31:25.905Z,54.88
2019-04-21T04:33:58.113Z,54.23
2019-04-21T04:36:31.901Z,54.14
2019-04-21T04:41:26.546Z,54.77
2019-04-21T04:43:59.030Z,55.56
2019-04-21T04:46:18.208Z,55.52
2019-04-21T04:48:51.338Z,55.67
2019-04-21T04:51:27.117Z,56.60
2019-04-21T04:53:53.927Z,54.69
2019-04-21T04:56:20.578Z,55.40
2019-04-21T05:01:28.791Z,55.78
2019-04-21T05:06:42.083Z,56.27
2019-04-21T05:11:39.589Z,55.61
2019-04-21T05:14:02.872Z,56.40
2019-04-21T05:16:36.644Z,56.29
2019-04-21T05:19:03.818Z,54.85
2019-04-21T05:21:30.163Z,55.20
2019-04-21T05:23:44.195Z,55.50
2019-04-21T05:26:07.022Z,56.57
2019-04-21T05:28:37.617Z,55.55
2019-04-21T05:31:38.305Z,55.15
2019-04-21T05:34:10.750Z,54.92
2019-04-21T05:39:33.674Z,55.67
2019-04-21T05:41:54.264Z,55.08
2019-04-21T05:44:41.343Z,55.04
2019-04-21T05:47:14.178Z,54.85
2019-04-21T05:49:56.017Z,54.80
2019-04-21T05:52:22.918Z,53.41
2019-04-21T05:57:28.824Z,51.35
2019-04-21T05:59:53.203Z,51.12
2019-04-21T06:02:47.905Z,50.07
2019-04-21T06:05:10.429Z,49.00
2019-04-21T06:07:28.725Z,48.57
2019-04-21T06:12:28.414Z,47.70
2019-04-21T06:15:03.744Z,47.15
2019-04-21T06:17:34.845Z,46.93
2019-04-21T06:20:00.325Z,45.93
2019-04-21T06:22:28.862Z,45.89
2019-04-21T06:30:00.148Z,45.62
2019-04-21T06:35:12.726Z,44.64
2019-04-21T06:42:27.823Z,44.50
2019-04-21T06:47:35.071Z,43.90
2019-04-21T06:49:53.712Z,43.92
2019-04-21T06:52:51.669Z,43.36
2019-04-21T06:55:03.520Z,43.78
2019-04-21T06:57:29.163Z,42.72
2019-04-21T06:59:54.280Z,43.25
2019-04-21T07:05:20.000Z,41.92
2019-04-21T07:07:55.176Z,41.61
2019-04-21T07:10:11.095Z,41.55
2019-04-21T07:12:32.171Z,41.72
2019-04-21T07:15:19.233Z,41.54
2019-04-21T07:17:46.946Z,42.52
2019-04-21T07:22:31.291Z,41.65
2019-04-21T07:25:03.002Z,41.67
2019-04-21T07:27:28.986Z,41.38
2019-04-21T07:29:59.575Z,41.82
2019-04-21T07:32:29.221Z,41.41
2019-04-21T07:34:57.604Z,41.58
2019-04-21T07:37:23.883Z,41.68
2019-04-21T07:39:52.827Z,41.32
2019-04-21T07:42:18.534Z,41.37
2019-04-21T07:44:46.292Z,41.43
2019-04-21T07:47:27.214Z,40.66
2019-04-21T07:50:07.349Z,40.64
2019-04-21T07:53:02.091Z,41.17
2019-04-21T07:57:54.832Z,40.74
2019-04-21T08:00:29.335Z,40.32
2019-04-21T08:02:57.801Z,40.17
2019-04-21T08:05:26.776Z,40.49
2019-04-21T08:07:55.894Z,40.80
2019-04-21T08:10:22.936Z,40.40
2019-04-21T08:12:47.345Z,40.46
2019-04-21T08:18:09.259Z,40.18
2019-04-21T08:20:18.813Z,40.06
2019-04-21T08:22:51.596Z,39.46
2019-04-21T08:25:21.897Z,39.21
2019-04-21T08:30:19.079Z,38.84
2019-04-21T08:35:49.687Z,38.02
2019-04-21T08:37:46.567Z,37.70
2019-04-21T08:40:19.650Z,37.19
2019-04-21T08:42:46.692Z,37.09
2019-04-21T08:45:15.227Z,37.53
2019-04-21T08:48:00.445Z,35.60
2019-04-21T08:50:25.406Z,36.06
2019-04-21T08:55:40.114Z,34.51
2019-04-21T08:58:28.978Z,34.92
2019-04-21T09:01:10.332Z,35.09
2019-04-21T09:06:40.271Z,34.52
2019-04-21T09:09:01.621Z,35.84
2019-04-21T09:11:22.684Z,35.91
2019-04-21T09:13:57.151Z,35.34
2019-04-21T09:16:21.888Z,34.67
2019-04-21T09:18:45.717Z,35.77
2019-04-21T09:21:25.604Z,35.67
2019-04-21T09:23:50.808Z,34.72
2019-04-21T09:26:20.114Z,34.92
2019-04-21T09:28:45.097Z,34.92
2019-04-21T09:31:03.244Z,34.26
2019-04-21T09:33:47.147Z,34.05
2019-04-21T09:36:15.415Z,32.89
2019-04-21T09:38:42.483Z,31.23
2019-04-21T09:41:14.260Z,30.56
2019-04-21T09:43:43.609Z,29.89
2019-04-21T09:46:08.402Z,29.96
2019-04-21T09:48:46.619Z,29.80
2019-04-21T09:51:06.481Z,28.85
2019-04-21T09:53:37.733Z,29.32
2019-04-21T09:56:07.949Z,28.89
2019-04-21T09:58:39.848Z,29.26
2019-04-21T10:01:11.628Z,29.38
2019-04-21T10:03:36.174Z,29.77
2019-04-21T10:06:00.721Z,29.64
2019-04-21T10:08:29.479Z,29.26
2019-04-21T10:10:57.035Z,29.52
2019-04-21T10:13:25.312Z,30.37
2019-04-21T10:16:08.799Z,29.10
2019-04-21T10:18:36.383Z,29.12
2019-04-21T10:21:03.989Z,28.90
2019-04-21T10:23:31.667Z,28.21
2019-04-21T10:25:59.055Z,29.06
2019-04-21T10:28:26.849Z,28.44
2019-04-21T10:30:54.298Z,28.66
2019-04-21T10:33:22.015Z,28.37
2019-04-21T10:35:49.257Z,26.81
2019-04-21T10:38:29.239Z,26.97
2019-04-21T10:40:47.454Z,27.28
2019-04-21T10:43:17.657Z,25.89
2019-04-21T10:45:44.239Z,25.67
2019-04-21T10:48:12.775Z,24.01
2019-04-21T10:50:41.215Z,24.13
2019-04-21T10:53:18.876Z,22.78
2019-04-21T10:56:01.491Z,21.46
2019-04-21T10:58:20.410Z,20.18
2019-04-21T11:00:51.526Z,18.28
2019-04-21T11:03:33.238Z,17.37
2019-04-21T11:06:01.282Z,18.06
2019-04-21T11:08:34.155Z,16.83
2019-04-21T11:10:58.254Z,15.00
2019-04-21T11:13:32.620Z,16.48
2019-04-21T11:16:01.295Z,14.59
2019-04-21T11:18:35.747Z,14.05
2019-04-21T11:21:04.911Z,13.72
2019-04-21T11:23:35.372Z,14.30
2019-04-21T11:26:04.271Z,13.33
2019-04-21T11:28:31.870Z,13.43
2019-04-21T11:31:00.462Z,13.59
2019-04-21T11:33:29.394Z,14.35
2019-04-21T11:35:57.427Z,13.44
2019-04-21T11:38:55.314Z,12.94
2019-04-21T11:41:07.713Z,12.66
2019-04-21T11:43:35.199Z,12.20
2019-04-21T11:46:02.768Z,12.81
2019-04-21T11:48:30.512Z,12.56
2019-04-21T11:50:59.269Z,12.58
2019-04-21T11:53:28.612Z,11.76
2019-04-21T11:55:56.978Z,12.05
2019-04-21T11:58:26.165Z,12.68
2019-04-21T12:00:57.947Z,11.66
2019-04-21T12:03:27.362Z,13.00
2019-04-21T12:05:55.669Z,13.33
2019-04-21T12:08:32.431Z,12.13
2019-04-21T12:10:53.517Z,14.18
2019-04-21T12:13:22.313Z,11.67
2019-04-21T12:15:50.195Z,14.33
2019-04-21T12:18:17.900Z,11.77
2019-04-21T12:20:45.346Z,13.80
2019-04-21T12:23:14.206Z,13.61
2019-04-21T12:25:45.322Z,12.92
2019-04-21T12:28:14.259Z,13.96
2019-04-21T12:30:43.537Z,12.92
2019-04-21T12:33:31.834Z,12.16
2019-04-21T12:35:59.989Z,12.75
2019-04-21T12:38:35.415Z,13.47
2019-04-21T12:40:56.979Z,14.02
2019-04-21T12:43:24.494Z,12.10
2019-04-21T12:45:51.934Z,13.80
2019-04-21T12:48:20.091Z,12.47
2019-04-21T12:50:47.950Z,14.25
2019-04-21T12:53:16.077Z,11.66
2019-04-21T12:55:46.337Z,12.56
2019-04-21T12:58:15.178Z,12.63
2019-04-21T13:00:42.952Z,11.99
2019-04-21T13:03:11.880Z,13.78
2019-04-21T13:05:39.997Z,12.78
2019-04-21T13:08:07.387Z,12.91
2019-04-21T13:10:35.941Z,14.07
2019-04-21T13:13:03.826Z,14.23
2019-04-21T13:15:31.521Z,15.06
2019-04-21T13:18:00.558Z,14.96
2019-04-21T13:20:31.781Z,12.64
2019-04-21T13:23:01.943Z,13.49
2019-04-21T13:25:34.186Z,13.72
2019-04-21T13:28:07.359Z,13.14
2019-04-21T13:30:38.066Z,13.99
2019-04-21T13:33:15.451Z,14.01
2019-04-21T13:35:42.923Z,13.79
2019-04-21T13:38:19.907Z,13.21
2019-04-21T13:41:12.253Z,14.54
2019-04-21T13:43:23.305Z,15.58
2019-04-21T13:45:51.763Z,13.59
2019-04-21T13:48:19.423Z,13.20
2019-04-21T13:50:47.134Z,14.24
2019-04-21T13:53:14.786Z,15.90
2019-04-21T13:55:42.683Z,15.37
2019-04-21T13:58:14.603Z,15.84
2019-04-21T14:00:45.623Z,15.73
2019-04-21T14:03:14.517Z,15.61
2019-04-21T14:05:46.667Z,15.45
2019-04-21T14:08:15.513Z,13.09
2019-04-21T14:10:43.903Z,13.89
2019-04-21T14:13:12.152Z,14.71
2019-04-21T14:15:39.938Z,13.62
2019-04-21T14:18:07.341Z,13.71
2019-04-21T14:20:35.239Z,13.98
2019-04-21T14:23:17.230Z,13.34
2019-04-21T14:25:35.502Z,13.71
2019-04-21T14:28:04.034Z,14.44
2019-04-21T14:30:32.518Z,15.08
2019-04-21T14:33:00.297Z,14.88
2019-04-21T14:35:29.372Z,15.88
2019-04-21T14:37:58.203Z,15.40
2019-04-21T14:40:29.508Z,14.25
2019-04-21T14:42:56.278Z,13.81
2019-04-21T14:45:45.132Z,14.40
2019-04-21T14:48:32.867Z,14.51
2019-04-21T14:51:19.050Z,13.62
2019-04-21T14:53:59.754Z,13.53
2019-04-21T14:56:27.383Z,13.78
2019-04-21T14:58:57.323Z,13.33
2019-04-21T15:01:26.124Z,12.39
2019-04-21T15:03:55.425Z,14.60
2019-04-21T15:06:23.170Z,16.50
2019-04-21T15:08:53.296Z,17.09
2019-04-21T15:11:22.173Z,17.33
2019-04-21T15:13:51.394Z,17.16
2019-04-21T15:16:18.843Z,15.80
2019-04-21T15:18:46.578Z,14.27
2019-04-21T15:21:15.075Z,15.22
2019-04-21T15:23:44.666Z,14.21
2019-04-21T15:26:12.374Z,14.23
2019-04-21T15:28:42.238Z,14.07
2019-04-21T15:31:12.777Z,14.33
2019-04-21T15:33:39.585Z,14.46
2019-04-21T15:36:07.111Z,14.39
2019-04-21T15:38:35.894Z,15.00
2019-04-21T15:41:08.322Z,16.63
2019-04-21T15:43:34.296Z,16.16
2019-04-21T15:46:02.611Z,16.11
2019-04-21T15:48:30.800Z,15.02
2019-04-21T15:50:58.860Z,14.81
2019-04-21T15:53:30.054Z,16.12
2019-04-21T15:56:22.909Z,15.41
2019-04-21T15:59:08.932Z,15.45
2019-04-21T16:01:56.810Z,15.43
2019-04-21T16:04:25.122Z,16.42
2019-04-21T16:06:55.472Z,16.25
2019-04-21T16:09:25.901Z,15.85
2019-04-21T16:11:55.790Z,17.74
2019-04-21T16:14:24.818Z,16.81
2019-04-21T16:16:54.471Z,16.00
2019-04-21T16:19:23.013Z,16.13
2019-04-21T16:21:56.927Z,15.67
2019-04-21T16:24:25.316Z,16.37
2019-04-21T16:26:53.114Z,17.67
2019-04-21T16:29:20.866Z,15.68
2019-04-21T16:31:49.052Z,17.28
2019-04-21T16:34:17.779Z,17.37
2019-04-21T16:36:47.821Z,16.20
2019-04-21T16:39:15.577Z,16.88
2019-04-21T16:41:44.478Z,16.99
2019-04-21T16:44:13.431Z,17.63
2019-04-21T16:46:41.332Z,16.43
2019-04-21T16:49:09.657Z,17.36
2019-04-21T16:51:38.056Z,16.03
2019-04-21T16:54:13.953Z,17.11
2019-04-21T16:56:52.120Z,17.34
2019-04-21T16:59:38.893Z,17.43
2019-04-21T17:02:07.074Z,17.32
2019-04-21T17:04:36.226Z,17.77
2019-04-21T17:07:11.341Z,16.18
2019-04-21T17:09:41.661Z,17.06
2019-04-21T17:12:13.747Z,17.28
2019-04-21T17:14:53.651Z,16.74
2019-04-21T17:17:32.310Z,17.54
2019-04-21T17:19:43.834Z,17.50
2019-04-21T17:22:10.018Z,17.84
2019-04-21T17:24:38.037Z,15.71
2019-04-21T17:27:06.944Z,15.88
2019-04-21T17:29:34.678Z,16.12
2019-04-21T17:32:06.506Z,15.82
2019-04-21T17:34:34.281Z,16.00
2019-04-21T17:37:03.499Z,16.58
2019-04-21T17:39:31.229Z,16.77
2019-04-21T17:42:11.746Z,16.58
2019-04-21T17:44:29.802Z,16.77
2019-04-21T17:47:05.235Z,16.28
2019-04-21T17:49:30.901Z,17.29
2019-04-21T17:52:25.050Z,16.70
2019-04-21T17:55:20.988Z,17.17
2019-04-21T17:57:57.086Z,17.24
2019-04-21T18:00:53.446Z,17.58
2019-04-21T18:02:58.996Z,17.55
2019-04-21T18:05:31.969Z,18.06
2019-04-21T18:07:56.779Z,18.14
2019-04-21T18:10:33.857Z,18.08
2019-04-21T18:12:54.497Z,18.96
2019-04-21T18:15:34.062Z,18.35
2019-04-21T18:17:44.968Z,19.07
2019-04-21T18:20:23.911Z,19.29
2019-04-21T18:23:35.139Z,19.25
2019-04-21T18:26:01.987Z,19.19
2019-04-21T18:28:22.836Z,19.64
2019-04-21T18:30:56.635Z,19.88
2019-04-21T18:33:29.948Z,20.12
2019-04-21T18:36:31.845Z,19.59
2019-04-21T18:39:18.024Z,20.05
2019-04-21T18:41:36.562Z,20.09
2019-04-21T18:44:32.240Z,20.29
2019-04-21T18:47:16.565Z,20.55
2019-04-21T18:49:39.049Z,20.54
2019-04-21T18:52:45.219Z,20.92
2019-04-21T18:55:14.225Z,21.12
2019-04-21T18:57:37.516Z,21.41
2019-04-21T18:59:59.455Z,22.04
2019-04-21T19:02:31.682Z,22.77
2019-04-21T19:05:04.361Z,22.99
2019-04-21T19:07:45.581Z,23.56
2019-04-21T19:10:22.242Z,24.15
2019-04-21T19:15:19.842Z,24.82
2019-04-21T19:20:25.496Z,25.79
2019-04-21T19:22:52.217Z,25.74
2019-04-21T19:25:20.840Z,26.14
2019-04-21T19:27:50.249Z,26.68
2019-04-21T19:32:51.065Z,27.15
2019-04-21T19:35:07.885Z,27.26
2019-04-21T19:37:43.829Z,27.54
2019-04-21T19:40:25.149Z,27.86
2019-04-21T19:42:51.432Z,28.40
2019-04-21T19:45:22.550Z,28.61
2019-04-21T19:48:02.308Z,28.81
2019-04-21T19:50:33.518Z,29.58
2019-04-21T19:52:52.017Z,30.52
2019-04-21T19:55:11.911Z,30.08
2019-04-21T19:57:41.047Z,30.25
2019-04-21T20:00:11.237Z,30.44
2019-04-21T20:02:40.204Z,30.76
2019-04-21T20:05:13.605Z,31.30
2019-04-21T20:07:54.790Z,31.72
2019-04-21T20:10:27.117Z,31.84
2019-04-21T20:12:55.580Z,32.69
2019-04-21T20:15:30.370Z,32.65
2019-04-21T20:17:50.141Z,32.56
2019-04-21T20:20:06.898Z,32.39
2019-04-21T20:22:40.380Z,32.30
2019-04-21T20:25:11.639Z,32.55
2019-04-21T20:27:45.514Z,31.26
2019-04-21T20:30:27.777Z,32.71
2019-04-21T20:32:56.488Z,33.12
2019-04-21T20:35:30.799Z,31.71
2019-04-21T20:37:47.738Z,32.97
2019-04-21T20:40:23.298Z,32.71
2019-04-21T20:42:47.028Z,33.27
2019-04-21T20:45:40.655Z,32.71
2019-04-21T20:47:42.417Z,34.82
2019-04-21T20:50:19.787Z,34.13
2019-04-21T20:52:54.074Z,36.23
2019-04-21T20:55:16.598Z,37.68
2019-04-21T20:57:50.645Z,37.38
2019-04-21T21:00:23.360Z,35.23
2019-04-21T21:03:04.511Z,34.08
2019-04-21T21:05:23.372Z,33.81
2019-04-21T21:07:55.941Z,34.48
2019-04-21T21:10:20.384Z,34.83
2019-04-21T21:13:00.965Z,33.58
2019-04-21T21:15:24.700Z,34.94
2019-04-21T21:18:01.039Z,32.82
2019-04-21T21:20:29.511Z,33.13
2019-04-21T21:22:55.155Z,33.35
2019-04-21T21:25:25.886Z,32.22
2019-04-21T21:27:44.513Z,32.55
2019-04-21T21:30:31.306Z,33.36
2019-04-21T21:33:10.519Z,32.72
2019-04-21T21:35:26.103Z,32.44
2019-04-21T21:38:04.490Z,32.27
2019-04-21T21:40:30.399Z,32.72
2019-04-21T21:42:45.285Z,33.14
2019-04-21T21:45:17.256Z,33.42
2019-04-21T21:47:58.016Z,33.41
2019-04-21T21:50:20.848Z,36.86
2019-04-21T21:52:52.474Z,34.77
2019-04-21T21:55:10.162Z,34.41
2019-04-21T21:57:44.318Z,34.71
2019-04-21T22:00:12.353Z,34.12
2019-04-21T22:02:45.434Z,33.88
2019-04-21T22:05:12.980Z,34.37
2019-04-21T22:07:38.835Z,34.20
2019-04-21T22:10:08.486Z,34.50
2019-04-21T22:12:45.524Z,35.36
2019-04-21T22:15:12.642Z,34.73
2019-04-21T22:17:55.978Z,34.90
2019-04-21T22:20:27.235Z,39.32
2019-04-21T22:22:44.772Z,35.96
2019-04-21T22:25:12.728Z,38.34
2019-04-21T22:27:36.943Z,38.00
2019-04-21T22:30:09.396Z,36.29
2019-04-21T22:32:36.923Z,37.11
2019-04-21T22:35:10.787Z,39.40
2019-04-21T22:37:47.364Z,42.21
2019-04-21T22:40:22.999Z,40.07
2019-04-21T22:42:50.095Z,38.87
2019-04-21T22:45:09.199Z,38.44
2019-04-21T22:47:39.863Z,38.42
2019-04-21T22:50:08.443Z,37.90
2019-04-21T22:52:37.408Z,38.14
2019-04-21T22:55:12.000Z,40.11
2019-04-21T22:57:43.428Z,38.88
2019-04-21T23:00:18.312Z,38.74
2019-04-21T23:02:46.910Z,39.59
2019-04-21T23:05:20.709Z,38.94
2019-04-21T23:07:51.185Z,39.66
2019-04-21T23:10:14.305Z,41.24
2019-04-21T23:12:43.510Z,41.35
2019-04-21T23:15:17.143Z,41.03
2019-04-21T23:18:00.846Z,41.33
2019-04-21T23:20:32.787Z,41.87
2019-04-21T23:23:09.909Z,43.01
2019-04-21T23:25:26.214Z,44.50
2019-04-21T23:27:56.186Z,45.89
2019-04-21T23:30:38.867Z,44.46
2019-04-21T23:32:50.452Z,46.68
2019-04-21T23:35:19.682Z,43.68
2019-04-21T23:37:50.073Z,45.62
2019-04-21T23:40:16.494Z,44.61
2019-04-21T23:42:43.367Z,48.08
2019-04-21T23:45:10.634Z,46.51
2019-04-21T23:47:48.096Z,49.78
2019-04-21T23:50:23.449Z,48.34
2019-04-21T23:52:39.150Z,45.63
2019-04-21T23:55:07.612Z,45.12
2019-04-21T23:57:40.819Z,46.25
